sensor_id;sensor_type;location;lat;lon;timestamp;P1;durP1;ratioP1;P2;durP2;ratioP2
7647;SDS011;3866;48.020;11.720;2023-06-05T00:00:03;4.87;;;4.40;;
7647;SDS011;3866;48.020;11.720;2023-06-05T00:02:32;6.03;;;4.40;;
7647;SDS011;3866;48.020;11.720;2023-06-05T00:04:58;7.97;;;5.00;;
7647;SDS011;3866;48.020;11.720;2023-06-05T00:07:26;5.73;;;5.13;;
7647;SDS011;3866;48.020;11.720;2023-06-05T00:09:53;7.33;;;5.50;;
7647;SDS011;3866;48.020;11.720;2023-06-05T00:12:20;5.47;;;4.80;;
7647;SDS011;3866;48.020;11.720;2023-06-05T00:14:47;6.27;;;5.27;;
7647;SDS011;3866;48.020;11.720;2023-06-05T00:17:15;5.23;;;4.73;;
7647;SDS011;3866;48.020;11.720;2023-06-05T00:19:42;9.97;;;5.60;;
7647;SDS011;3866;48.020;11.720;2023-06-05T00:22:09;6.93;;;5.83;;
7647;SDS011;3866;48.020;11.720;2023-06-05T00:24:36;6.03;;;5.00;;
7647;SDS011;3866;48.020;11.720;2023-06-05T00:27:04;9.50;;;5.50;;
7647;SDS011;3866;48.020;11.720;2023-06-05T00:29:31;6.07;;;5.47;;
7647;SDS011;3866;48.020;11.720;2023-06-05T00:31:58;7.23;;;5.47;;
7647;SDS011;3866;48.020;11.720;2023-06-05T00:34:26;6.27;;;5.47;;
7647;SDS011;3866;48.020;11.720;2023-06-05T00:36:53;6.37;;;5.80;;
7647;SDS011;3866;48.020;11.720;2023-06-05T00:39:20;9.70;;;5.40;;
7647;SDS011;3866;48.020;11.720;2023-06-05T00:41:47;7.63;;;5.17;;
7647;SDS011;3866;48.020;11.720;2023-06-05T00:44:13;6.23;;;5.63;;
7647;SDS011;3866;48.020;11.720;2023-06-05T00:46:41;5.80;;;5.20;;
7647;SDS011;3866;48.020;11.720;2023-06-05T00:49:08;5.93;;;5.33;;
7647;SDS011;3866;48.020;11.720;2023-06-05T00:51:37;5.57;;;5.00;;
7647;SDS011;3866;48.020;11.720;2023-06-05T00:54:07;5.70;;;5.20;;
7647;SDS011;3866;48.020;11.720;2023-06-05T00:56:34;5.97;;;5.20;;
7647;SDS011;3866;48.020;11.720;2023-06-05T00:59:01;5.60;;;5.10;;
7647;SDS011;3866;48.020;11.720;2023-06-05T01:01:29;5.70;;;5.20;;
7647;SDS011;3866;48.020;11.720;2023-06-05T01:03:57;8.43;;;5.77;;
7647;SDS011;3866;48.020;11.720;2023-06-05T01:06:24;6.67;;;5.73;;
7647;SDS011;3866;48.020;11.720;2023-06-05T01:08:54;8.03;;;5.40;;
7647;SDS011;3866;48.020;11.720;2023-06-05T01:11:22;6.33;;;5.67;;
7647;SDS011;3866;48.020;11.720;2023-06-05T01:13:56;6.47;;;4.93;;
7647;SDS011;3866;48.020;11.720;2023-06-05T01:16:28;6.27;;;5.73;;
7647;SDS011;3866;48.020;11.720;2023-06-05T01:18:57;7.80;;;6.03;;
7647;SDS011;3866;48.020;11.720;2023-06-05T01:21:27;7.03;;;5.47;;
7647;SDS011;3866;48.020;11.720;2023-06-05T01:23:56;9.73;;;6.07;;
7647;SDS011;3866;48.020;11.720;2023-06-05T01:26:24;6.57;;;5.50;;
7647;SDS011;3866;48.020;11.720;2023-06-05T01:28:55;6.33;;;5.73;;
7647;SDS011;3866;48.020;11.720;2023-06-05T01:31:23;8.50;;;6.40;;
7647;SDS011;3866;48.020;11.720;2023-06-05T01:33:54;6.93;;;5.70;;
7647;SDS011;3866;48.020;11.720;2023-06-05T01:36:27;7.13;;;5.97;;
7647;SDS011;3866;48.020;11.720;2023-06-05T01:38:57;8.07;;;6.43;;
7647;SDS011;3866;48.020;11.720;2023-06-05T01:41:25;9.50;;;6.87;;
7647;SDS011;3866;48.020;11.720;2023-06-05T01:43:52;7.63;;;6.37;;
7647;SDS011;3866;48.020;11.720;2023-06-05T01:46:21;8.37;;;6.83;;
7647;SDS011;3866;48.020;11.720;2023-06-05T01:48:49;7.43;;;6.63;;
7647;SDS011;3866;48.020;11.720;2023-06-05T01:51:17;10.03;;;6.60;;
7647;SDS011;3866;48.020;11.720;2023-06-05T01:53:44;7.83;;;7.07;;
7647;SDS011;3866;48.020;11.720;2023-06-05T01:56:15;7.57;;;6.83;;
7647;SDS011;3866;48.020;11.720;2023-06-05T01:58:45;6.60;;;6.00;;
7647;SDS011;3866;48.020;11.720;2023-06-05T02:01:12;9.37;;;7.30;;
7647;SDS011;3866;48.020;11.720;2023-06-05T02:03:40;9.97;;;7.73;;
7647;SDS011;3866;48.020;11.720;2023-06-05T02:06:12;11.43;;;7.90;;
7647;SDS011;3866;48.020;11.720;2023-06-05T02:08:40;10.50;;;7.70;;
7647;SDS011;3866;48.020;11.720;2023-06-05T02:11:07;11.83;;;7.13;;
7647;SDS011;3866;48.020;11.720;2023-06-05T02:13:36;9.67;;;7.70;;
7647;SDS011;3866;48.020;11.720;2023-06-05T02:16:04;8.73;;;7.83;;
7647;SDS011;3866;48.020;11.720;2023-06-05T02:18:31;7.40;;;6.67;;
7647;SDS011;3866;48.020;11.720;2023-06-05T02:21:02;8.23;;;7.23;;
7647;SDS011;3866;48.020;11.720;2023-06-05T02:23:29;8.60;;;7.57;;
7647;SDS011;3866;48.020;11.720;2023-06-05T02:25:56;9.43;;;7.27;;
7647;SDS011;3866;48.020;11.720;2023-06-05T02:28:23;8.03;;;7.30;;
7647;SDS011;3866;48.020;11.720;2023-06-05T02:30:53;8.57;;;7.67;;
7647;SDS011;3866;48.020;11.720;2023-06-05T02:33:20;7.83;;;7.03;;
7647;SDS011;3866;48.020;11.720;2023-06-05T02:35:48;8.37;;;7.30;;
7647;SDS011;3866;48.020;11.720;2023-06-05T02:38:15;9.07;;;7.77;;
7647;SDS011;3866;48.020;11.720;2023-06-05T02:40:42;8.90;;;8.00;;
7647;SDS011;3866;48.020;11.720;2023-06-05T02:43:08;10.17;;;8.10;;
7647;SDS011;3866;48.020;11.720;2023-06-05T02:45:36;9.40;;;7.60;;
7647;SDS011;3866;48.020;11.720;2023-06-05T02:48:04;9.30;;;7.73;;
7647;SDS011;3866;48.020;11.720;2023-06-05T02:50:31;11.87;;;8.20;;
7647;SDS011;3866;48.020;11.720;2023-06-05T02:52:58;9.93;;;8.70;;
7647;SDS011;3866;48.020;11.720;2023-06-05T02:55:25;8.80;;;7.90;;
7647;SDS011;3866;48.020;11.720;2023-06-05T02:57:54;8.47;;;7.50;;
7647;SDS011;3866;48.020;11.720;2023-06-05T03:00:22;8.70;;;7.90;;
7647;SDS011;3866;48.020;11.720;2023-06-05T03:02:50;10.83;;;7.80;;
7647;SDS011;3866;48.020;11.720;2023-06-05T03:05:19;9.43;;;8.07;;
7647;SDS011;3866;48.020;11.720;2023-06-05T03:07:49;9.17;;;7.93;;
7647;SDS011;3866;48.020;11.720;2023-06-05T03:10:19;12.10;;;8.47;;
7647;SDS011;3866;48.020;11.720;2023-06-05T03:12:46;9.80;;;7.87;;
7647;SDS011;3866;48.020;11.720;2023-06-05T03:15:13;10.63;;;7.73;;
7647;SDS011;3866;48.020;11.720;2023-06-05T03:17:43;8.97;;;8.10;;
7647;SDS011;3866;48.020;11.720;2023-06-05T03:20:10;10.17;;;7.93;;
7647;SDS011;3866;48.020;11.720;2023-06-05T03:22:39;8.87;;;7.50;;
7647;SDS011;3866;48.020;11.720;2023-06-05T03:25:06;8.83;;;7.80;;
7647;SDS011;3866;48.020;11.720;2023-06-05T03:27:34;8.87;;;7.97;;
7647;SDS011;3866;48.020;11.720;2023-06-05T03:30:01;9.80;;;8.00;;
7647;SDS011;3866;48.020;11.720;2023-06-05T03:32:29;8.73;;;7.83;;
7647;SDS011;3866;48.020;11.720;2023-06-05T03:34:56;8.67;;;7.80;;
7647;SDS011;3866;48.020;11.720;2023-06-05T03:37:23;9.30;;;7.73;;
7647;SDS011;3866;48.020;11.720;2023-06-05T03:39:51;9.13;;;8.03;;
7647;SDS011;3866;48.020;11.720;2023-06-05T03:42:18;8.10;;;7.30;;
7647;SDS011;3866;48.020;11.720;2023-06-05T03:44:45;8.07;;;7.27;;
7647;SDS011;3866;48.020;11.720;2023-06-05T03:47:12;8.40;;;7.30;;
7647;SDS011;3866;48.020;11.720;2023-06-05T03:49:39;10.43;;;7.67;;
7647;SDS011;3866;48.020;11.720;2023-06-05T03:52:11;8.70;;;7.70;;
7647;SDS011;3866;48.020;11.720;2023-06-05T03:54:39;7.80;;;7.00;;
7647;SDS011;3866;48.020;11.720;2023-06-05T03:57:11;8.40;;;7.27;;
7647;SDS011;3866;48.020;11.720;2023-06-05T03:59:39;9.23;;;7.43;;
7647;SDS011;3866;48.020;11.720;2023-06-05T04:02:07;9.57;;;7.27;;
7647;SDS011;3866;48.020;11.720;2023-06-05T04:04:33;7.70;;;7.00;;
7647;SDS011;3866;48.020;11.720;2023-06-05T04:07:00;8.87;;;7.50;;
7647;SDS011;3866;48.020;11.720;2023-06-05T04:09:27;10.67;;;7.80;;
7647;SDS011;3866;48.020;11.720;2023-06-05T04:11:54;8.70;;;7.90;;
7647;SDS011;3866;48.020;11.720;2023-06-05T04:14:23;9.93;;;8.27;;
7647;SDS011;3866;48.020;11.720;2023-06-05T04:16:50;10.57;;;8.50;;
7647;SDS011;3866;48.020;11.720;2023-06-05T04:19:17;9.70;;;8.30;;
7647;SDS011;3866;48.020;11.720;2023-06-05T04:21:43;10.70;;;8.60;;
7647;SDS011;3866;48.020;11.720;2023-06-05T04:24:10;11.10;;;8.03;;
7647;SDS011;3866;48.020;11.720;2023-06-05T04:26:38;11.27;;;9.17;;
7647;SDS011;3866;48.020;11.720;2023-06-05T04:29:07;11.23;;;9.00;;
7647;SDS011;3866;48.020;11.720;2023-06-05T04:31:40;11.47;;;8.63;;
7647;SDS011;3866;48.020;11.720;2023-06-05T04:34:07;11.60;;;8.83;;
7647;SDS011;3866;48.020;11.720;2023-06-05T04:36:34;12.40;;;9.10;;
7647;SDS011;3866;48.020;11.720;2023-06-05T04:39:02;13.03;;;8.40;;
7647;SDS011;3866;48.020;11.720;2023-06-05T04:41:36;10.27;;;9.20;;
7647;SDS011;3866;48.020;11.720;2023-06-05T04:44:09;10.63;;;8.97;;
7647;SDS011;3866;48.020;11.720;2023-06-05T04:46:37;9.53;;;8.20;;
7647;SDS011;3866;48.020;11.720;2023-06-05T04:49:06;11.67;;;9.30;;
7647;SDS011;3866;48.020;11.720;2023-06-05T04:51:32;12.17;;;9.13;;
7647;SDS011;3866;48.020;11.720;2023-06-05T04:53:59;10.93;;;9.37;;
7647;SDS011;3866;48.020;11.720;2023-06-05T04:56:26;12.90;;;9.80;;
7647;SDS011;3866;48.020;11.720;2023-06-05T04:58:53;11.07;;;9.63;;
7647;SDS011;3866;48.020;11.720;2023-06-05T05:01:20;13.77;;;9.80;;
7647;SDS011;3866;48.020;11.720;2023-06-05T05:03:49;10.30;;;9.27;;
7647;SDS011;3866;48.020;11.720;2023-06-05T05:06:17;10.60;;;9.50;;
7647;SDS011;3866;48.020;11.720;2023-06-05T05:08:45;12.47;;;9.47;;
7647;SDS011;3866;48.020;11.720;2023-06-05T05:11:11;11.97;;;10.00;;
7647;SDS011;3866;48.020;11.720;2023-06-05T05:13:39;11.43;;;9.00;;
7647;SDS011;3866;48.020;11.720;2023-06-05T05:16:05;11.43;;;10.23;;
7647;SDS011;3866;48.020;11.720;2023-06-05T05:18:34;11.07;;;9.97;;
7647;SDS011;3866;48.020;11.720;2023-06-05T05:21:02;13.00;;;9.80;;
7647;SDS011;3866;48.020;11.720;2023-06-05T05:23:31;13.00;;;10.40;;
7647;SDS011;3866;48.020;11.720;2023-06-05T05:25:58;10.93;;;9.83;;
7647;SDS011;3866;48.020;11.720;2023-06-05T05:28:26;12.43;;;9.60;;
7647;SDS011;3866;48.020;11.720;2023-06-05T05:30:53;13.57;;;10.27;;
7647;SDS011;3866;48.020;11.720;2023-06-05T05:33:22;13.40;;;10.77;;
7647;SDS011;3866;48.020;11.720;2023-06-05T05:35:49;11.60;;;10.40;;
7647;SDS011;3866;48.020;11.720;2023-06-05T05:38:16;10.60;;;9.50;;
7647;SDS011;3866;48.020;11.720;2023-06-05T05:40:44;12.67;;;10.47;;
7647;SDS011;3866;48.020;11.720;2023-06-05T05:43:11;12.20;;;10.00;;
7647;SDS011;3866;48.020;11.720;2023-06-05T05:45:38;12.80;;;10.03;;
7647;SDS011;3866;48.020;11.720;2023-06-05T05:48:05;12.50;;;9.43;;
7647;SDS011;3866;48.020;11.720;2023-06-05T05:50:33;9.67;;;8.53;;
7647;SDS011;3866;48.020;11.720;2023-06-05T05:53:00;10.80;;;9.27;;
7647;SDS011;3866;48.020;11.720;2023-06-05T05:55:28;10.57;;;9.50;;
7647;SDS011;3866;48.020;11.720;2023-06-05T05:57:56;13.37;;;9.23;;
7647;SDS011;3866;48.020;11.720;2023-06-05T06:00:23;17.53;;;9.57;;
7647;SDS011;3866;48.020;11.720;2023-06-05T06:02:51;10.67;;;9.57;;
7647;SDS011;3866;48.020;11.720;2023-06-05T06:05:18;15.77;;;9.63;;
7647;SDS011;3866;48.020;11.720;2023-06-05T06:07:46;10.53;;;9.30;;
7647;SDS011;3866;48.020;11.720;2023-06-05T06:10:13;10.00;;;8.57;;
7647;SDS011;3866;48.020;11.720;2023-06-05T06:12:40;13.33;;;9.70;;
7647;SDS011;3866;48.020;11.720;2023-06-05T06:15:09;10.97;;;9.37;;
7647;SDS011;3866;48.020;11.720;2023-06-05T06:17:36;9.93;;;8.80;;
7647;SDS011;3866;48.020;11.720;2023-06-05T06:20:04;12.50;;;9.00;;
7647;SDS011;3866;48.020;11.720;2023-06-05T06:22:32;9.07;;;8.13;;
7647;SDS011;3866;48.020;11.720;2023-06-05T06:24:58;9.40;;;8.40;;
7647;SDS011;3866;48.020;11.720;2023-06-05T06:27:26;11.10;;;8.40;;
7647;SDS011;3866;48.020;11.720;2023-06-05T06:29:53;10.03;;;8.47;;
7647;SDS011;3866;48.020;11.720;2023-06-05T06:32:22;9.60;;;8.20;;
7647;SDS011;3866;48.020;11.720;2023-06-05T06:34:50;11.10;;;8.13;;
7647;SDS011;3866;48.020;11.720;2023-06-05T06:37:19;8.97;;;7.97;;
7647;SDS011;3866;48.020;11.720;2023-06-05T06:39:47;13.30;;;8.50;;
7647;SDS011;3866;48.020;11.720;2023-06-05T06:42:13;12.07;;;8.30;;
7647;SDS011;3866;48.020;11.720;2023-06-05T06:44:41;9.07;;;6.93;;
7647;SDS011;3866;48.020;11.720;2023-06-05T06:47:08;8.60;;;7.33;;
7647;SDS011;3866;48.020;11.720;2023-06-05T06:49:37;8.60;;;7.77;;
7647;SDS011;3866;48.020;11.720;2023-06-05T06:52:04;10.97;;;7.83;;
7647;SDS011;3866;48.020;11.720;2023-06-05T06:54:31;9.47;;;7.73;;
7647;SDS011;3866;48.020;11.720;2023-06-05T06:56:58;10.03;;;7.63;;
7647;SDS011;3866;48.020;11.720;2023-06-05T06:59:26;10.33;;;7.83;;
7647;SDS011;3866;48.020;11.720;2023-06-05T07:02:09;8.83;;;7.67;;
7647;SDS011;3866;48.020;11.720;2023-06-05T07:04:38;8.70;;;7.13;;
7647;SDS011;3866;48.020;11.720;2023-06-05T07:07:10;10.63;;;6.90;;
7647;SDS011;3866;48.020;11.720;2023-06-05T07:09:38;8.83;;;7.73;;
7647;SDS011;3866;48.020;11.720;2023-06-05T07:12:05;7.93;;;7.00;;
7647;SDS011;3866;48.020;11.720;2023-06-05T07:14:34;10.67;;;8.00;;
7647;SDS011;3866;48.020;11.720;2023-06-05T07:17:01;7.87;;;6.70;;
7647;SDS011;3866;48.020;11.720;2023-06-05T07:19:28;8.77;;;7.17;;
7647;SDS011;3866;48.020;11.720;2023-06-05T07:21:57;7.40;;;6.27;;
7647;SDS011;3866;48.020;11.720;2023-06-05T07:24:25;9.60;;;6.93;;
7647;SDS011;3866;48.020;11.720;2023-06-05T07:26:54;9.30;;;7.43;;
7647;SDS011;3866;48.020;11.720;2023-06-05T07:29:22;11.37;;;7.57;;
7647;SDS011;3866;48.020;11.720;2023-06-05T07:31:49;11.50;;;7.13;;
7647;SDS011;3866;48.020;11.720;2023-06-05T07:34:17;11.33;;;7.20;;
7647;SDS011;3866;48.020;11.720;2023-06-05T07:36:45;11.37;;;6.90;;
7647;SDS011;3866;48.020;11.720;2023-06-05T07:39:14;7.93;;;6.77;;
7647;SDS011;3866;48.020;11.720;2023-06-05T07:41:42;11.33;;;7.30;;
7647;SDS011;3866;48.020;11.720;2023-06-05T07:44:09;9.13;;;6.87;;
7647;SDS011;3866;48.020;11.720;2023-06-05T07:46:37;8.13;;;7.13;;
7647;SDS011;3866;48.020;11.720;2023-06-05T07:49:06;10.43;;;7.10;;
7647;SDS011;3866;48.020;11.720;2023-06-05T07:51:34;9.67;;;7.33;;
7647;SDS011;3866;48.020;11.720;2023-06-05T07:54:02;10.27;;;6.73;;
7647;SDS011;3866;48.020;11.720;2023-06-05T07:56:30;10.00;;;7.20;;
7647;SDS011;3866;48.020;11.720;2023-06-05T07:58:58;8.60;;;7.00;;
7647;SDS011;3866;48.020;11.720;2023-06-05T08:01:25;9.63;;;6.67;;
7647;SDS011;3866;48.020;11.720;2023-06-05T08:03:52;9.60;;;7.10;;
7647;SDS011;3866;48.020;11.720;2023-06-05T08:06:19;9.17;;;7.37;;
7647;SDS011;3866;48.020;11.720;2023-06-05T08:08:46;10.70;;;7.03;;
7647;SDS011;3866;48.020;11.720;2023-06-05T08:11:13;6.30;;;5.70;;
7647;SDS011;3866;48.020;11.720;2023-06-05T08:13:41;7.80;;;6.07;;
7647;SDS011;3866;48.020;11.720;2023-06-05T08:16:08;5.40;;;4.90;;
7647;SDS011;3866;48.020;11.720;2023-06-05T08:18:35;7.17;;;5.53;;
7647;SDS011;3866;48.020;11.720;2023-06-05T08:21:02;7.00;;;5.20;;
7647;SDS011;3866;48.020;11.720;2023-06-05T08:23:29;6.63;;;5.17;;
7647;SDS011;3866;48.020;11.720;2023-06-05T08:25:56;6.07;;;5.40;;
7647;SDS011;3866;48.020;11.720;2023-06-05T08:28:23;5.33;;;4.70;;
7647;SDS011;3866;48.020;11.720;2023-06-05T08:30:51;8.10;;;4.87;;
7647;SDS011;3866;48.020;11.720;2023-06-05T08:33:18;5.93;;;5.10;;
7647;SDS011;3866;48.020;11.720;2023-06-05T08:35:45;6.00;;;5.13;;
7647;SDS011;3866;48.020;11.720;2023-06-05T08:38:12;5.70;;;5.10;;
7647;SDS011;3866;48.020;11.720;2023-06-05T08:40:39;6.90;;;5.67;;
7647;SDS011;3866;48.020;11.720;2023-06-05T08:43:07;7.23;;;5.60;;
7647;SDS011;3866;48.020;11.720;2023-06-05T08:45:33;6.30;;;5.70;;
7647;SDS011;3866;48.020;11.720;2023-06-05T08:48:02;6.40;;;5.77;;
7647;SDS011;3866;48.020;11.720;2023-06-05T08:50:32;6.83;;;5.50;;
7647;SDS011;3866;48.020;11.720;2023-06-05T08:52:59;7.60;;;5.67;;
7647;SDS011;3866;48.020;11.720;2023-06-05T08:55:29;6.37;;;4.90;;
7647;SDS011;3866;48.020;11.720;2023-06-05T08:57:56;5.63;;;5.13;;
7647;SDS011;3866;48.020;11.720;2023-06-05T09:00:23;5.80;;;5.27;;
7647;SDS011;3866;48.020;11.720;2023-06-05T09:02:51;5.63;;;5.07;;
7647;SDS011;3866;48.020;11.720;2023-06-05T09:05:19;7.30;;;4.60;;
7647;SDS011;3866;48.020;11.720;2023-06-05T09:07:46;5.23;;;4.73;;
7647;SDS011;3866;48.020;11.720;2023-06-05T09:10:22;6.50;;;4.83;;
7647;SDS011;3866;48.020;11.720;2023-06-05T09:12:54;5.60;;;4.67;;
7647;SDS011;3866;48.020;11.720;2023-06-05T09:15:21;7.13;;;4.53;;
7647;SDS011;3866;48.020;11.720;2023-06-05T09:18:01;5.30;;;4.60;;
7647;SDS011;3866;48.020;11.720;2023-06-05T09:20:35;6.20;;;5.60;;
7647;SDS011;3866;48.020;11.720;2023-06-05T09:23:03;5.87;;;4.87;;
7647;SDS011;3866;48.020;11.720;2023-06-05T09:28:16;5.27;;;4.80;;
7647;SDS011;3866;48.020;11.720;2023-06-05T09:30:52;5.27;;;4.77;;
7647;SDS011;3866;48.020;11.720;2023-06-05T09:33:21;6.17;;;5.57;;
7647;SDS011;3866;48.020;11.720;2023-06-05T09:36:02;5.33;;;4.83;;
7647;SDS011;3866;48.020;11.720;2023-06-05T09:38:30;5.23;;;4.73;;
7647;SDS011;3866;48.020;11.720;2023-06-05T09:41:06;5.80;;;4.70;;
7647;SDS011;3866;48.020;11.720;2023-06-05T09:43:34;7.13;;;5.17;;
7647;SDS011;3866;48.020;11.720;2023-06-05T09:46:05;6.60;;;4.90;;
7647;SDS011;3866;48.020;11.720;2023-06-05T09:48:33;4.60;;;4.20;;
7647;SDS011;3866;48.020;11.720;2023-06-05T09:51:09;5.30;;;4.80;;
7647;SDS011;3866;48.020;11.720;2023-06-05T09:53:41;6.13;;;4.87;;
7647;SDS011;3866;48.020;11.720;2023-06-05T09:56:09;5.07;;;4.10;;
7647;SDS011;3866;48.020;11.720;2023-06-05T09:58:38;5.33;;;4.83;;
7647;SDS011;3866;48.020;11.720;2023-06-05T10:01:09;7.33;;;5.00;;
7647;SDS011;3866;48.020;11.720;2023-06-05T10:03:37;6.10;;;4.37;;
7647;SDS011;3866;48.020;11.720;2023-06-05T10:06:06;10.27;;;4.77;;
7647;SDS011;3866;48.020;11.720;2023-06-05T10:08:35;4.97;;;4.57;;
7647;SDS011;3866;48.020;11.720;2023-06-05T10:11:03;5.27;;;4.37;;
7647;SDS011;3866;48.020;11.720;2023-06-05T10:13:30;5.30;;;4.27;;
7647;SDS011;3866;48.020;11.720;2023-06-05T10:15:58;9.57;;;4.87;;
7647;SDS011;3866;48.020;11.720;2023-06-05T10:18:26;6.40;;;4.27;;
7647;SDS011;3866;48.020;11.720;2023-06-05T10:20:53;7.50;;;4.53;;
7647;SDS011;3866;48.020;11.720;2023-06-05T10:23:23;6.90;;;5.23;;
7647;SDS011;3866;48.020;11.720;2023-06-05T10:25:51;6.03;;;4.40;;
7647;SDS011;3866;48.020;11.720;2023-06-05T10:28:25;5.10;;;4.60;;
7647;SDS011;3866;48.020;11.720;2023-06-05T10:31:09;4.53;;;4.13;;
7647;SDS011;3866;48.020;11.720;2023-06-05T10:34:00;6.27;;;4.23;;
7647;SDS011;3866;48.020;11.720;2023-06-05T10:36:42;5.17;;;4.33;;
7647;SDS011;3866;48.020;11.720;2023-06-05T10:39:21;5.80;;;4.70;;
7647;SDS011;3866;48.020;11.720;2023-06-05T10:41:51;8.73;;;4.70;;
7647;SDS011;3866;48.020;11.720;2023-06-05T10:44:17;6.70;;;4.90;;
7647;SDS011;3866;48.020;11.720;2023-06-05T10:46:44;5.47;;;4.80;;
7647;SDS011;3866;48.020;11.720;2023-06-05T10:49:12;5.97;;;4.80;;
7647;SDS011;3866;48.020;11.720;2023-06-05T10:51:41;5.60;;;5.10;;
7647;SDS011;3866;48.020;11.720;2023-06-05T10:54:09;9.60;;;4.80;;
7647;SDS011;3866;48.020;11.720;2023-06-05T10:56:55;7.27;;;5.80;;
7647;SDS011;3866;48.020;11.720;2023-06-05T10:59:25;8.43;;;5.67;;
7647;SDS011;3866;48.020;11.720;2023-06-05T11:05:06;6.33;;;5.73;;
7647;SDS011;3866;48.020;11.720;2023-06-05T11:07:35;10.07;;;6.63;;
7647;SDS011;3866;48.020;11.720;2023-06-05T11:10:06;7.50;;;6.33;;
7647;SDS011;3866;48.020;11.720;2023-06-05T11:12:57;8.27;;;6.33;;
7647;SDS011;3866;48.020;11.720;2023-06-05T11:15:38;6.60;;;6.00;;
7647;SDS011;3866;48.020;11.720;2023-06-05T11:18:26;8.67;;;6.07;;
7647;SDS011;3866;48.020;11.720;2023-06-05T11:20:54;9.40;;;6.17;;
7647;SDS011;3866;48.020;11.720;2023-06-05T11:23:21;6.90;;;6.13;;
7647;SDS011;3866;48.020;11.720;2023-06-05T11:25:52;6.90;;;6.00;;
7647;SDS011;3866;48.020;11.720;2023-06-05T11:28:40;6.40;;;5.80;;
7647;SDS011;3866;48.020;11.720;2023-06-05T11:31:08;7.63;;;5.83;;
7647;SDS011;3866;48.020;11.720;2023-06-05T11:33:35;6.60;;;5.90;;
7647;SDS011;3866;48.020;11.720;2023-06-05T11:36:03;6.53;;;5.93;;
7647;SDS011;3866;48.020;11.720;2023-06-05T11:38:32;7.33;;;6.10;;
7647;SDS011;3866;48.020;11.720;2023-06-05T11:40:59;6.70;;;6.20;;
7647;SDS011;3866;48.020;11.720;2023-06-05T11:43:31;7.17;;;5.77;;
7647;SDS011;3866;48.020;11.720;2023-06-05T11:46:00;6.23;;;5.63;;
7647;SDS011;3866;48.020;11.720;2023-06-05T11:48:27;6.27;;;5.67;;
7647;SDS011;3866;48.020;11.720;2023-06-05T11:50:56;6.10;;;5.50;;
7647;SDS011;3866;48.020;11.720;2023-06-05T11:53:25;8.57;;;6.40;;
7647;SDS011;3866;48.020;11.720;2023-06-05T11:55:53;8.30;;;5.50;;
7647;SDS011;3866;48.020;11.720;2023-06-05T11:58:32;7.70;;;5.77;;
7647;SDS011;3866;48.020;11.720;2023-06-05T12:01:07;7.10;;;5.03;;
7647;SDS011;3866;48.020;11.720;2023-06-05T12:03:39;5.53;;;5.03;;
7647;SDS011;3866;48.020;11.720;2023-06-05T12:06:07;9.23;;;6.80;;
7647;SDS011;3866;48.020;11.720;2023-06-05T12:08:34;6.07;;;5.20;;
7647;SDS011;3866;48.020;11.720;2023-06-05T12:11:02;7.30;;;5.67;;
7647;SDS011;3866;48.020;11.720;2023-06-05T12:13:45;7.37;;;5.60;;
7647;SDS011;3866;48.020;11.720;2023-06-05T12:16:14;5.67;;;5.20;;
7647;SDS011;3866;48.020;11.720;2023-06-05T12:18:42;6.63;;;5.40;;
7647;SDS011;3866;48.020;11.720;2023-06-05T12:21:19;6.00;;;5.50;;
7647;SDS011;3866;48.020;11.720;2023-06-05T12:23:47;6.47;;;5.73;;
7647;SDS011;3866;48.020;11.720;2023-06-05T12:26:14;9.20;;;5.00;;
7647;SDS011;3866;48.020;11.720;2023-06-05T12:28:42;5.90;;;5.27;;
7647;SDS011;3866;48.020;11.720;2023-06-05T12:31:09;8.67;;;5.50;;
7647;SDS011;3866;48.020;11.720;2023-06-05T12:33:47;6.00;;;5.40;;
7647;SDS011;3866;48.020;11.720;2023-06-05T12:36:14;5.70;;;5.20;;
7647;SDS011;3866;48.020;11.720;2023-06-05T12:38:42;7.23;;;6.03;;
7647;SDS011;3866;48.020;11.720;2023-06-05T12:41:10;6.00;;;5.37;;
7647;SDS011;3866;48.020;11.720;2023-06-05T12:43:37;7.23;;;5.47;;
7647;SDS011;3866;48.020;11.720;2023-06-05T12:46:04;5.73;;;5.13;;
7647;SDS011;3866;48.020;11.720;2023-06-05T12:48:32;6.53;;;4.63;;
7647;SDS011;3866;48.020;11.720;2023-06-05T12:51:02;6.70;;;5.23;;
7647;SDS011;3866;48.020;11.720;2023-06-05T12:53:29;8.47;;;4.80;;
7647;SDS011;3866;48.020;11.720;2023-06-05T12:55:55;9.10;;;5.23;;
7647;SDS011;3866;48.020;11.720;2023-06-05T12:58:22;8.90;;;5.87;;
7647;SDS011;3866;48.020;11.720;2023-06-05T13:00:49;5.67;;;5.17;;
7647;SDS011;3866;48.020;11.720;2023-06-05T13:03:17;7.00;;;4.60;;
7647;SDS011;3866;48.020;11.720;2023-06-05T13:05:44;4.47;;;4.07;;
7647;SDS011;3866;48.020;11.720;2023-06-05T13:08:12;4.70;;;4.30;;
7647;SDS011;3866;48.020;11.720;2023-06-05T13:10:39;6.17;;;4.47;;
7647;SDS011;3866;48.020;11.720;2023-06-05T13:13:06;5.03;;;4.10;;
7647;SDS011;3866;48.020;11.720;2023-06-05T13:15:33;5.27;;;4.17;;
7647;SDS011;3866;48.020;11.720;2023-06-05T13:18:00;4.23;;;3.93;;
7647;SDS011;3866;48.020;11.720;2023-06-05T13:20:26;4.83;;;4.10;;
7647;SDS011;3866;48.020;11.720;2023-06-05T13:22:53;5.43;;;4.20;;
7647;SDS011;3866;48.020;11.720;2023-06-05T13:25:22;5.37;;;3.43;;
7647;SDS011;3866;48.020;11.720;2023-06-05T13:27:48;5.83;;;3.70;;
7647;SDS011;3866;48.020;11.720;2023-06-05T13:30:15;4.20;;;3.53;;
7647;SDS011;3866;48.020;11.720;2023-06-05T13:32:42;3.80;;;3.43;;
7647;SDS011;3866;48.020;11.720;2023-06-05T13:35:10;3.93;;;3.63;;
7647;SDS011;3866;48.020;11.720;2023-06-05T13:37:37;5.00;;;4.10;;
7647;SDS011;3866;48.020;11.720;2023-06-05T13:40:06;3.97;;;3.63;;
7647;SDS011;3866;48.020;11.720;2023-06-05T13:42:36;5.67;;;4.40;;
7647;SDS011;3866;48.020;11.720;2023-06-05T13:45:04;4.83;;;4.03;;
7647;SDS011;3866;48.020;11.720;2023-06-05T13:47:31;4.40;;;4.00;;
7647;SDS011;3866;48.020;11.720;2023-06-05T13:49:58;5.47;;;3.93;;
7647;SDS011;3866;48.020;11.720;2023-06-05T13:52:25;4.13;;;3.73;;
7647;SDS011;3866;48.020;11.720;2023-06-05T13:54:52;4.13;;;3.80;;
7647;SDS011;3866;48.020;11.720;2023-06-05T13:57:19;6.07;;;4.43;;
7647;SDS011;3866;48.020;11.720;2023-06-05T13:59:47;4.57;;;4.17;;
7647;SDS011;3866;48.020;11.720;2023-06-05T14:02:14;4.60;;;4.03;;
7647;SDS011;3866;48.020;11.720;2023-06-05T14:04:41;6.00;;;5.40;;
7647;SDS011;3866;48.020;11.720;2023-06-05T14:07:08;6.73;;;4.67;;
7647;SDS011;3866;48.020;11.720;2023-06-05T14:09:35;4.77;;;4.37;;
7647;SDS011;3866;48.020;11.720;2023-06-05T14:12:02;4.97;;;4.17;;
7647;SDS011;3866;48.020;11.720;2023-06-05T14:14:32;4.73;;;4.30;;
7647;SDS011;3866;48.020;11.720;2023-06-05T14:17:00;5.20;;;4.70;;
7647;SDS011;3866;48.020;11.720;2023-06-05T14:19:27;7.47;;;4.80;;
7647;SDS011;3866;48.020;11.720;2023-06-05T14:21:54;4.63;;;4.03;;
7647;SDS011;3866;48.020;11.720;2023-06-05T14:24:24;16.50;;;5.27;;
7647;SDS011;3866;48.020;11.720;2023-06-05T14:26:52;9.13;;;4.50;;
7647;SDS011;3866;48.020;11.720;2023-06-05T14:29:19;7.40;;;4.93;;
7647;SDS011;3866;48.020;11.720;2023-06-05T14:31:46;9.87;;;5.77;;
7647;SDS011;3866;48.020;11.720;2023-06-05T14:34:14;6.03;;;5.43;;
7647;SDS011;3866;48.020;11.720;2023-06-05T14:36:41;6.07;;;5.33;;
7647;SDS011;3866;48.020;11.720;2023-06-05T14:39:15;5.67;;;5.17;;
7647;SDS011;3866;48.020;11.720;2023-06-05T14:41:42;6.23;;;5.10;;
7647;SDS011;3866;48.020;11.720;2023-06-05T14:44:09;5.87;;;5.10;;
7647;SDS011;3866;48.020;11.720;2023-06-05T14:46:36;7.87;;;6.63;;
7647;SDS011;3866;48.020;11.720;2023-06-05T14:49:03;12.20;;;5.73;;
7647;SDS011;3866;48.020;11.720;2023-06-05T14:51:31;7.27;;;5.60;;
7647;SDS011;3866;48.020;11.720;2023-06-05T14:53:58;7.60;;;5.93;;
7647;SDS011;3866;48.020;11.720;2023-06-05T14:56:25;7.90;;;7.10;;
7647;SDS011;3866;48.020;11.720;2023-06-05T14:58:52;7.97;;;7.00;;
7647;SDS011;3866;48.020;11.720;2023-06-05T15:01:19;7.87;;;7.17;;
7647;SDS011;3866;48.020;11.720;2023-06-05T15:03:46;8.50;;;7.67;;
7647;SDS011;3866;48.020;11.720;2023-06-05T15:06:13;9.13;;;7.73;;
7647;SDS011;3866;48.020;11.720;2023-06-05T15:08:43;9.50;;;8.33;;
7647;SDS011;3866;48.020;11.720;2023-06-05T15:11:10;9.97;;;9.07;;